Wright Patterson, Ohio
Current Conditions -  °F | °C
As of 9:58 PM on Saturday 24 Jan 2015 (Local Time) from KFFO Reporting Station
Overcast Overcast  
Wind Chill: 28°   Ceiling: 2600
Heat Index: 35°   Visibility: 10mi
Dew Point: 29°   Wind: 9mph
Humidity: 79%   Direction: 210°SSW
Pressure: 29.76"   Gusts: NA
Location:  39.8169°N, 84.0506°W
Report Text: KFFO 250258Z 21008KT 10SM BKN026 OVC033 02/M02 A2976 RMK AO2A BKN V OVC SLP088 T00161016 50001
Loading
Personal Weather Stations






























Interactive Weather Map New forecast layout! Learn more

10-Day Weather Forecast

Advertisements
Track Severe Weather on mobile